sensor_id;sensor_type;location;lat;lon;timestamp;P1;durP1;ratioP1;P2;durP2;ratioP2
21305;SDS011;10812;51.838;5.838;2023-05-10T00:00:33;45.60;;;25.80;;
21305;SDS011;10812;51.838;5.838;2023-05-10T00:03:01;48.93;;;25.23;;
21305;SDS011;10812;51.838;5.838;2023-05-10T00:05:32;52.13;;;27.53;;
21305;SDS011;10812;51.838;5.838;2023-05-10T00:08:00;46.73;;;25.57;;
21305;SDS011;10812;51.838;5.838;2023-05-10T00:10:29;46.90;;;25.07;;
21305;SDS011;10812;51.838;5.838;2023-05-10T00:12:57;45.10;;;25.73;;
21305;SDS011;10812;51.838;5.838;2023-05-10T00:15:25;47.87;;;25.13;;
21305;SDS011;10812;51.838;5.838;2023-05-10T00:17:53;46.07;;;26.60;;
21305;SDS011;10812;51.838;5.838;2023-05-10T00:20:22;45.37;;;25.53;;
21305;SDS011;10812;51.838;5.838;2023-05-10T00:22:51;45.37;;;25.13;;
21305;SDS011;10812;51.838;5.838;2023-05-10T00:25:20;38.80;;;24.13;;
21305;SDS011;10812;51.838;5.838;2023-05-10T00:27:48;43.40;;;25.37;;
21305;SDS011;10812;51.838;5.838;2023-05-10T00:30:16;43.57;;;24.27;;
21305;SDS011;10812;51.838;5.838;2023-05-10T00:32:45;40.67;;;23.90;;
21305;SDS011;10812;51.838;5.838;2023-05-10T00:35:14;43.53;;;24.63;;
21305;SDS011;10812;51.838;5.838;2023-05-10T00:37:42;40.43;;;24.50;;
21305;SDS011;10812;51.838;5.838;2023-05-10T00:40:12;44.97;;;24.60;;
21305;SDS011;10812;51.838;5.838;2023-05-10T00:42:41;39.00;;;22.70;;
21305;SDS011;10812;51.838;5.838;2023-05-10T00:45:09;37.97;;;21.30;;
21305;SDS011;10812;51.838;5.838;2023-05-10T00:47:38;38.00;;;21.10;;
21305;SDS011;10812;51.838;5.838;2023-05-10T00:50:07;32.90;;;19.93;;
21305;SDS011;10812;51.838;5.838;2023-05-10T00:52:36;34.20;;;19.70;;
21305;SDS011;10812;51.838;5.838;2023-05-10T00:55:04;37.87;;;21.00;;
21305;SDS011;10812;51.838;5.838;2023-05-10T00:57:35;32.67;;;19.43;;
21305;SDS011;10812;51.838;5.838;2023-05-10T01:00:04;35.93;;;19.60;;
21305;SDS011;10812;51.838;5.838;2023-05-10T01:02:34;34.30;;;19.03;;
21305;SDS011;10812;51.838;5.838;2023-05-10T01:05:03;33.00;;;18.93;;
21305;SDS011;10812;51.838;5.838;2023-05-10T01:07:31;31.60;;;18.87;;
21305;SDS011;10812;51.838;5.838;2023-05-10T01:09:59;30.50;;;18.73;;
21305;SDS011;10812;51.838;5.838;2023-05-10T01:12:27;31.70;;;18.60;;
21305;SDS011;10812;51.838;5.838;2023-05-10T01:14:57;32.90;;;18.13;;
21305;SDS011;10812;51.838;5.838;2023-05-10T01:17:27;34.13;;;18.50;;
21305;SDS011;10812;51.838;5.838;2023-05-10T01:19:56;36.93;;;19.87;;
21305;SDS011;10812;51.838;5.838;2023-05-10T01:22:36;37.43;;;20.40;;
21305;SDS011;10812;51.838;5.838;2023-05-10T01:25:32;38.10;;;20.90;;
21305;SDS011;10812;51.838;5.838;2023-05-10T01:28:32;36.30;;;19.37;;
21305;SDS011;10812;51.838;5.838;2023-05-10T01:31:33;34.03;;;18.37;;
21305;SDS011;10812;51.838;5.838;2023-05-10T01:34:19;38.27;;;20.13;;
21305;SDS011;10812;51.838;5.838;2023-05-10T01:36:51;36.70;;;19.80;;
21305;SDS011;10812;51.838;5.838;2023-05-10T01:39:24;39.33;;;21.00;;
21305;SDS011;10812;51.838;5.838;2023-05-10T01:42:10;36.07;;;20.23;;
21305;SDS011;10812;51.838;5.838;2023-05-10T01:44:42;40.40;;;20.50;;
21305;SDS011;10812;51.838;5.838;2023-05-10T01:47:16;39.57;;;22.30;;
21305;SDS011;10812;51.838;5.838;2023-05-10T01:49:51;41.63;;;20.60;;
21305;SDS011;10812;51.838;5.838;2023-05-10T01:52:23;39.90;;;21.57;;
21305;SDS011;10812;51.838;5.838;2023-05-10T01:54:59;39.97;;;22.20;;
21305;SDS011;10812;51.838;5.838;2023-05-10T01:57:31;43.23;;;21.57;;
21305;SDS011;10812;51.838;5.838;2023-05-10T02:00:03;38.17;;;20.77;;
21305;SDS011;10812;51.838;5.838;2023-05-10T02:02:35;42.50;;;22.77;;
21305;SDS011;10812;51.838;5.838;2023-05-10T02:05:05;37.93;;;20.50;;
21305;SDS011;10812;51.838;5.838;2023-05-10T02:07:35;45.07;;;23.60;;
21305;SDS011;10812;51.838;5.838;2023-05-10T02:10:04;45.17;;;22.90;;
21305;SDS011;10812;51.838;5.838;2023-05-10T02:12:35;41.77;;;22.57;;
21305;SDS011;10812;51.838;5.838;2023-05-10T02:15:05;45.63;;;23.90;;
21305;SDS011;10812;51.838;5.838;2023-05-10T02:17:37;44.50;;;23.03;;
21305;SDS011;10812;51.838;5.838;2023-05-10T02:20:07;48.50;;;25.37;;
21305;SDS011;10812;51.838;5.838;2023-05-10T02:22:37;44.70;;;24.63;;
21305;SDS011;10812;51.838;5.838;2023-05-10T02:25:08;46.33;;;25.30;;
21305;SDS011;10812;51.838;5.838;2023-05-10T02:27:37;47.87;;;24.77;;
21305;SDS011;10812;51.838;5.838;2023-05-10T02:30:07;53.50;;;28.03;;
21305;SDS011;10812;51.838;5.838;2023-05-10T02:32:37;57.50;;;29.60;;
21305;SDS011;10812;51.838;5.838;2023-05-10T02:35:07;51.93;;;28.00;;
21305;SDS011;10812;51.838;5.838;2023-05-10T02:37:37;55.67;;;30.10;;
21305;SDS011;10812;51.838;5.838;2023-05-10T02:40:06;50.70;;;27.80;;
21305;SDS011;10812;51.838;5.838;2023-05-10T02:42:36;48.43;;;27.20;;
21305;SDS011;10812;51.838;5.838;2023-05-10T02:45:10;47.90;;;25.37;;
21305;SDS011;10812;51.838;5.838;2023-05-10T02:47:42;47.83;;;24.53;;
21305;SDS011;10812;51.838;5.838;2023-05-10T02:50:10;50.90;;;26.50;;
21305;SDS011;10812;51.838;5.838;2023-05-10T02:52:39;48.43;;;26.37;;
21305;SDS011;10812;51.838;5.838;2023-05-10T02:55:12;43.53;;;25.03;;
21305;SDS011;10812;51.838;5.838;2023-05-10T02:57:43;45.00;;;24.37;;
21305;SDS011;10812;51.838;5.838;2023-05-10T03:08:21;46.90;;;25.40;;
21305;SDS011;10812;51.838;5.838;2023-05-10T03:10:54;46.03;;;25.47;;
21305;SDS011;10812;51.838;5.838;2023-05-10T03:13:29;44.40;;;24.67;;
21305;SDS011;10812;51.838;5.838;2023-05-10T03:16:04;47.40;;;24.93;;
21305;SDS011;10812;51.838;5.838;2023-05-10T03:18:37;51.83;;;25.17;;
21305;SDS011;10812;51.838;5.838;2023-05-10T03:21:11;51.63;;;24.80;;
21305;SDS011;10812;51.838;5.838;2023-05-10T03:23:43;48.83;;;24.13;;
21305;SDS011;10812;51.838;5.838;2023-05-10T03:26:17;46.27;;;25.43;;
21305;SDS011;10812;51.838;5.838;2023-05-10T03:28:51;49.60;;;24.87;;
21305;SDS011;10812;51.838;5.838;2023-05-10T03:31:20;44.80;;;22.90;;
21305;SDS011;10812;51.838;5.838;2023-05-10T03:33:49;44.33;;;24.30;;
21305;SDS011;10812;51.838;5.838;2023-05-10T03:36:18;48.53;;;24.67;;
21305;SDS011;10812;51.838;5.838;2023-05-10T03:38:48;46.00;;;24.07;;
21305;SDS011;10812;51.838;5.838;2023-05-10T03:41:16;44.90;;;23.87;;
21305;SDS011;10812;51.838;5.838;2023-05-10T03:43:44;51.80;;;25.47;;
21305;SDS011;10812;51.838;5.838;2023-05-10T03:46:12;47.27;;;24.80;;
21305;SDS011;10812;51.838;5.838;2023-05-10T03:48:40;46.47;;;24.03;;
21305;SDS011;10812;51.838;5.838;2023-05-10T03:51:08;46.43;;;25.07;;
21305;SDS011;10812;51.838;5.838;2023-05-10T03:53:36;47.83;;;23.37;;
21305;SDS011;10812;51.838;5.838;2023-05-10T03:56:06;49.57;;;25.73;;
21305;SDS011;10812;51.838;5.838;2023-05-10T03:58:34;53.83;;;25.03;;
21305;SDS011;10812;51.838;5.838;2023-05-10T04:01:02;49.37;;;24.80;;
21305;SDS011;10812;51.838;5.838;2023-05-10T04:03:30;55.33;;;26.07;;
21305;SDS011;10812;51.838;5.838;2023-05-10T04:05:59;53.47;;;25.10;;
21305;SDS011;10812;51.838;5.838;2023-05-10T04:08:28;55.80;;;26.30;;
21305;SDS011;10812;51.838;5.838;2023-05-10T04:11:05;49.07;;;24.97;;
21305;SDS011;10812;51.838;5.838;2023-05-10T04:13:34;51.53;;;25.27;;
21305;SDS011;10812;51.838;5.838;2023-05-10T04:16:03;48.77;;;24.20;;
21305;SDS011;10812;51.838;5.838;2023-05-10T04:18:31;49.93;;;25.20;;
21305;SDS011;10812;51.838;5.838;2023-05-10T04:21:00;47.50;;;24.27;;
21305;SDS011;10812;51.838;5.838;2023-05-10T04:23:28;53.30;;;24.53;;
21305;SDS011;10812;51.838;5.838;2023-05-10T04:25:59;49.00;;;23.63;;
21305;SDS011;10812;51.838;5.838;2023-05-10T04:28:29;46.63;;;24.03;;
21305;SDS011;10812;51.838;5.838;2023-05-10T04:31:00;50.70;;;24.50;;
21305;SDS011;10812;51.838;5.838;2023-05-10T04:33:29;53.17;;;25.40;;
21305;SDS011;10812;51.838;5.838;2023-05-10T04:35:57;57.07;;;26.97;;
21305;SDS011;10812;51.838;5.838;2023-05-10T04:38:26;47.33;;;25.00;;
21305;SDS011;10812;51.838;5.838;2023-05-10T04:40:54;58.23;;;27.83;;
21305;SDS011;10812;51.838;5.838;2023-05-10T04:43:31;48.70;;;25.60;;
21305;SDS011;10812;51.838;5.838;2023-05-10T04:46:00;52.50;;;26.07;;
21305;SDS011;10812;51.838;5.838;2023-05-10T04:48:28;51.43;;;26.20;;
21305;SDS011;10812;51.838;5.838;2023-05-10T04:50:56;56.73;;;27.93;;
21305;SDS011;10812;51.838;5.838;2023-05-10T04:53:24;54.90;;;27.67;;
21305;SDS011;10812;51.838;5.838;2023-05-10T04:55:53;56.53;;;28.40;;
21305;SDS011;10812;51.838;5.838;2023-05-10T04:58:21;48.23;;;27.07;;
21305;SDS011;10812;51.838;5.838;2023-05-10T05:00:50;51.20;;;27.50;;
21305;SDS011;10812;51.838;5.838;2023-05-10T05:03:18;56.07;;;26.83;;
21305;SDS011;10812;51.838;5.838;2023-05-10T05:05:46;47.00;;;26.83;;
21305;SDS011;10812;51.838;5.838;2023-05-10T05:08:15;58.10;;;27.80;;
21305;SDS011;10812;51.838;5.838;2023-05-10T05:10:43;48.47;;;26.37;;
21305;SDS011;10812;51.838;5.838;2023-05-10T05:13:12;55.73;;;27.87;;
21305;SDS011;10812;51.838;5.838;2023-05-10T05:15:40;52.37;;;25.90;;
21305;SDS011;10812;51.838;5.838;2023-05-10T05:18:09;48.23;;;25.27;;
21305;SDS011;10812;51.838;5.838;2023-05-10T05:20:38;49.83;;;26.00;;
21305;SDS011;10812;51.838;5.838;2023-05-10T05:23:06;51.27;;;26.43;;
21305;SDS011;10812;51.838;5.838;2023-05-10T05:25:34;49.77;;;26.53;;
21305;SDS011;10812;51.838;5.838;2023-05-10T05:28:02;45.43;;;25.00;;
21305;SDS011;10812;51.838;5.838;2023-05-10T05:30:31;48.37;;;26.93;;
21305;SDS011;10812;51.838;5.838;2023-05-10T05:32:59;47.40;;;24.90;;
21305;SDS011;10812;51.838;5.838;2023-05-10T05:35:28;50.70;;;27.50;;
21305;SDS011;10812;51.838;5.838;2023-05-10T05:37:56;44.50;;;24.80;;
21305;SDS011;10812;51.838;5.838;2023-05-10T05:40:25;43.87;;;25.63;;
21305;SDS011;10812;51.838;5.838;2023-05-10T05:42:53;39.10;;;23.67;;
21305;SDS011;10812;51.838;5.838;2023-05-10T05:45:21;43.23;;;23.63;;
21305;SDS011;10812;51.838;5.838;2023-05-10T05:47:49;42.33;;;22.63;;
21305;SDS011;10812;51.838;5.838;2023-05-10T05:50:17;47.90;;;23.73;;
21305;SDS011;10812;51.838;5.838;2023-05-10T05:52:47;49.60;;;26.53;;
21305;SDS011;10812;51.838;5.838;2023-05-10T06:06:02;47.87;;;24.50;;
21305;SDS011;10812;51.838;5.838;2023-05-10T06:08:32;45.17;;;22.47;;
21305;SDS011;10812;51.838;5.838;2023-05-10T06:11:01;36.50;;;22.80;;
21305;SDS011;10812;51.838;5.838;2023-05-10T06:13:30;32.47;;;20.00;;
21305;SDS011;10812;51.838;5.838;2023-05-10T06:16:01;34.57;;;19.73;;
21305;SDS011;10812;51.838;5.838;2023-05-10T06:18:30;36.93;;;20.27;;
21305;SDS011;10812;51.838;5.838;2023-05-10T06:20:58;32.43;;;18.73;;
21305;SDS011;10812;51.838;5.838;2023-05-10T06:23:26;34.37;;;18.33;;
21305;SDS011;10812;51.838;5.838;2023-05-10T06:25:56;32.03;;;19.03;;
21305;SDS011;10812;51.838;5.838;2023-05-10T06:28:24;36.00;;;20.07;;
21305;SDS011;10812;51.838;5.838;2023-05-10T06:30:52;34.27;;;20.37;;
21305;SDS011;10812;51.838;5.838;2023-05-10T06:33:20;35.47;;;19.80;;
21305;SDS011;10812;51.838;5.838;2023-05-10T06:35:48;31.63;;;18.73;;
21305;SDS011;10812;51.838;5.838;2023-05-10T06:38:16;32.33;;;18.70;;
21305;SDS011;10812;51.838;5.838;2023-05-10T06:40:44;34.57;;;19.10;;
21305;SDS011;10812;51.838;5.838;2023-05-10T06:43:14;39.70;;;19.13;;
21305;SDS011;10812;51.838;5.838;2023-05-10T06:45:42;35.27;;;18.73;;
21305;SDS011;10812;51.838;5.838;2023-05-10T06:48:10;34.53;;;19.53;;
21305;SDS011;10812;51.838;5.838;2023-05-10T06:50:38;39.23;;;19.03;;
21305;SDS011;10812;51.838;5.838;2023-05-10T06:53:07;33.87;;;19.30;;
21305;SDS011;10812;51.838;5.838;2023-05-10T07:07:09;40.00;;;19.40;;
21305;SDS011;10812;51.838;5.838;2023-05-10T07:09:37;45.07;;;19.60;;
21305;SDS011;10812;51.838;5.838;2023-05-10T07:12:05;40.27;;;18.73;;
21305;SDS011;10812;51.838;5.838;2023-05-10T07:14:37;44.57;;;21.40;;
21305;SDS011;10812;51.838;5.838;2023-05-10T07:17:05;43.47;;;20.73;;
21305;SDS011;10812;51.838;5.838;2023-05-10T07:19:33;42.70;;;20.90;;
21305;SDS011;10812;51.838;5.838;2023-05-10T07:22:02;39.30;;;20.77;;
21305;SDS011;10812;51.838;5.838;2023-05-10T07:27:01;43.23;;;20.67;;
21305;SDS011;10812;51.838;5.838;2023-05-10T07:29:29;39.10;;;21.20;;
21305;SDS011;10812;51.838;5.838;2023-05-10T07:31:57;40.47;;;21.83;;
21305;SDS011;10812;51.838;5.838;2023-05-10T07:34:25;38.83;;;21.10;;
21305;SDS011;10812;51.838;5.838;2023-05-10T07:36:53;38.10;;;21.27;;
21305;SDS011;10812;51.838;5.838;2023-05-10T07:39:21;40.10;;;21.03;;
21305;SDS011;10812;51.838;5.838;2023-05-10T07:41:54;39.87;;;21.00;;
21305;SDS011;10812;51.838;5.838;2023-05-10T07:44:23;43.77;;;22.17;;
21305;SDS011;10812;51.838;5.838;2023-05-10T07:46:51;36.53;;;20.67;;
21305;SDS011;10812;51.838;5.838;2023-05-10T07:49:19;40.57;;;20.80;;
21305;SDS011;10812;51.838;5.838;2023-05-10T07:51:47;35.27;;;20.17;;
21305;SDS011;10812;51.838;5.838;2023-05-10T07:54:16;41.37;;;20.63;;
21305;SDS011;10812;51.838;5.838;2023-05-10T07:56:44;38.50;;;20.80;;
21305;SDS011;10812;51.838;5.838;2023-05-10T07:59:16;31.73;;;19.10;;
21305;SDS011;10812;51.838;5.838;2023-05-10T08:01:44;37.23;;;21.13;;
21305;SDS011;10812;51.838;5.838;2023-05-10T08:04:12;35.97;;;21.10;;
21305;SDS011;10812;51.838;5.838;2023-05-10T08:06:41;33.43;;;20.23;;
21305;SDS011;10812;51.838;5.838;2023-05-10T08:09:09;33.63;;;19.33;;
21305;SDS011;10812;51.838;5.838;2023-05-10T08:11:37;28.63;;;19.40;;
21305;SDS011;10812;51.838;5.838;2023-05-10T08:14:05;34.58;;;19.83;;
21305;SDS011;10812;51.838;5.838;2023-05-10T08:16:34;33.47;;;19.87;;
21305;SDS011;10812;51.838;5.838;2023-05-10T08:19:03;35.13;;;20.00;;
21305;SDS011;10812;51.838;5.838;2023-05-10T08:21:31;34.33;;;20.47;;
21305;SDS011;10812;51.838;5.838;2023-05-10T08:23:59;35.22;;;21.27;;
21305;SDS011;10812;51.838;5.838;2023-05-10T08:26:28;35.83;;;21.83;;
21305;SDS011;10812;51.838;5.838;2023-05-10T08:28:56;33.25;;;20.73;;
21305;SDS011;10812;51.838;5.838;2023-05-10T08:31:24;35.20;;;20.08;;
21305;SDS011;10812;51.838;5.838;2023-05-10T08:33:53;34.25;;;20.25;;
21305;SDS011;10812;51.838;5.838;2023-05-10T08:36:21;33.78;;;21.40;;
21305;SDS011;10812;51.838;5.838;2023-05-10T08:38:50;37.17;;;20.90;;
21305;SDS011;10812;51.838;5.838;2023-05-10T08:41:19;35.65;;;22.48;;
21305;SDS011;10812;51.838;5.838;2023-05-10T08:43:48;37.50;;;21.98;;
21305;SDS011;10812;51.838;5.838;2023-05-10T08:46:18;37.90;;;23.45;;
21305;SDS011;10812;51.838;5.838;2023-05-10T08:48:48;40.25;;;23.15;;
21305;SDS011;10812;51.838;5.838;2023-05-10T08:51:19;36.67;;;23.13;;
21305;SDS011;10812;51.838;5.838;2023-05-10T08:53:51;35.58;;;21.17;;
21305;SDS011;10812;51.838;5.838;2023-05-10T08:56:19;36.67;;;22.75;;
21305;SDS011;10812;51.838;5.838;2023-05-10T08:58:48;31.27;;;19.02;;
21305;SDS011;10812;51.838;5.838;2023-05-10T09:01:16;32.28;;;19.70;;
21305;SDS011;10812;51.838;5.838;2023-05-10T09:03:46;32.43;;;19.07;;
21305;SDS011;10812;51.838;5.838;2023-05-10T09:06:14;26.67;;;17.50;;
21305;SDS011;10812;51.838;5.838;2023-05-10T09:08:44;26.97;;;16.70;;
21305;SDS011;10812;51.838;5.838;2023-05-10T09:11:13;23.73;;;15.97;;
21305;SDS011;10812;51.838;5.838;2023-05-10T09:13:42;25.87;;;15.03;;
21305;SDS011;10812;51.838;5.838;2023-05-10T09:16:10;25.20;;;16.17;;
21305;SDS011;10812;51.838;5.838;2023-05-10T09:18:47;27.73;;;16.13;;
21305;SDS011;10812;51.838;5.838;2023-05-10T09:21:16;27.40;;;16.10;;
21305;SDS011;10812;51.838;5.838;2023-05-10T09:23:46;28.07;;;16.17;;
21305;SDS011;10812;51.838;5.838;2023-05-10T09:26:16;25.57;;;14.07;;
21305;SDS011;10812;51.838;5.838;2023-05-10T09:28:52;19.93;;;13.33;;
21305;SDS011;10812;51.838;5.838;2023-05-10T09:31:21;20.80;;;11.37;;
21305;SDS011;10812;51.838;5.838;2023-05-10T09:33:51;21.77;;;11.17;;
21305;SDS011;10812;51.838;5.838;2023-05-10T09:36:20;20.10;;;10.80;;
21305;SDS011;10812;51.838;5.838;2023-05-10T09:38:52;14.47;;;9.40;;
21305;SDS011;10812;51.838;5.838;2023-05-10T09:41:20;14.77;;;9.70;;
21305;SDS011;10812;51.838;5.838;2023-05-10T09:43:50;15.47;;;9.57;;
21305;SDS011;10812;51.838;5.838;2023-05-10T09:46:23;14.38;;;9.07;;
21305;SDS011;10812;51.838;5.838;2023-05-10T09:48:52;14.65;;;9.10;;
21305;SDS011;10812;51.838;5.838;2023-05-10T09:51:20;12.53;;;8.27;;
21305;SDS011;10812;51.838;5.838;2023-05-10T09:57:41;9.68;;;6.88;;
21305;SDS011;10812;51.838;5.838;2023-05-10T10:00:09;12.23;;;7.88;;
21305;SDS011;10812;51.838;5.838;2023-05-10T10:02:44;13.27;;;7.22;;
21305;SDS011;10812;51.838;5.838;2023-05-10T10:05:14;13.00;;;7.38;;
21305;SDS011;10812;51.838;5.838;2023-05-10T10:07:43;12.23;;;7.60;;
21305;SDS011;10812;51.838;5.838;2023-05-10T10:10:12;10.30;;;6.53;;
21305;SDS011;10812;51.838;5.838;2023-05-10T10:12:42;10.23;;;6.93;;
21305;SDS011;10812;51.838;5.838;2023-05-10T10:15:11;9.77;;;7.15;;
21305;SDS011;10812;51.838;5.838;2023-05-10T10:32:19;9.98;;;6.22;;
21305;SDS011;10812;51.838;5.838;2023-05-10T10:34:53;10.27;;;6.85;;
21305;SDS011;10812;51.838;5.838;2023-05-10T10:37:22;10.20;;;6.13;;
21305;SDS011;10812;51.838;5.838;2023-05-10T10:39:51;8.30;;;6.28;;
21305;SDS011;10812;51.838;5.838;2023-05-10T10:45:13;8.90;;;5.82;;
21305;SDS011;10812;51.838;5.838;2023-05-10T10:47:41;7.97;;;5.85;;
21305;SDS011;10812;51.838;5.838;2023-05-10T10:50:10;7.05;;;5.78;;
21305;SDS011;10812;51.838;5.838;2023-05-10T10:52:39;7.93;;;5.60;;
21305;SDS011;10812;51.838;5.838;2023-05-10T10:55:09;9.73;;;5.00;;
21305;SDS011;10812;51.838;5.838;2023-05-10T10:57:42;7.47;;;5.50;;
21305;SDS011;10812;51.838;5.838;2023-05-10T11:00:24;7.68;;;5.15;;
21305;SDS011;10812;51.838;5.838;2023-05-10T11:09:40;5.88;;;4.28;;
21305;SDS011;10812;51.838;5.838;2023-05-10T11:12:09;6.75;;;4.63;;
21305;SDS011;10812;51.838;5.838;2023-05-10T11:14:37;7.35;;;4.35;;
21305;SDS011;10812;51.838;5.838;2023-05-10T11:20:06;7.05;;;4.35;;
21305;SDS011;10812;51.838;5.838;2023-05-10T11:22:48;8.45;;;4.80;;
21305;SDS011;10812;51.838;5.838;2023-05-10T11:25:18;5.63;;;4.50;;
21305;SDS011;10812;51.838;5.838;2023-05-10T11:27:47;6.88;;;5.22;;
21305;SDS011;10812;51.838;5.838;2023-05-10T11:30:15;8.00;;;4.88;;
21305;SDS011;10812;51.838;5.838;2023-05-10T11:32:46;8.07;;;5.18;;
21305;SDS011;10812;51.838;5.838;2023-05-10T11:35:14;6.43;;;4.35;;
21305;SDS011;10812;51.838;5.838;2023-05-10T11:37:42;5.70;;;4.40;;
21305;SDS011;10812;51.838;5.838;2023-05-10T11:40:15;7.13;;;4.05;;
21305;SDS011;10812;51.838;5.838;2023-05-10T11:42:44;6.10;;;3.72;;
21305;SDS011;10812;51.838;5.838;2023-05-10T11:45:12;7.25;;;4.75;;
21305;SDS011;10812;51.838;5.838;2023-05-10T11:47:40;6.60;;;4.60;;
21305;SDS011;10812;51.838;5.838;2023-05-10T11:50:11;6.55;;;4.35;;
21305;SDS011;10812;51.838;5.838;2023-05-10T11:52:39;5.88;;;4.32;;
21305;SDS011;10812;51.838;5.838;2023-05-10T11:55:08;7.10;;;4.43;;
21305;SDS011;10812;51.838;5.838;2023-05-10T11:57:36;6.82;;;3.95;;
21305;SDS011;10812;51.838;5.838;2023-05-10T12:00:08;5.55;;;3.88;;
21305;SDS011;10812;51.838;5.838;2023-05-10T12:02:37;5.68;;;3.83;;
21305;SDS011;10812;51.838;5.838;2023-05-10T12:05:05;5.18;;;4.10;;
21305;SDS011;10812;51.838;5.838;2023-05-10T12:07:36;6.03;;;4.15;;
21305;SDS011;10812;51.838;5.838;2023-05-10T12:10:07;5.53;;;4.13;;
21305;SDS011;10812;51.838;5.838;2023-05-10T12:12:38;4.80;;;4.13;;
21305;SDS011;10812;51.838;5.838;2023-05-10T12:15:11;7.32;;;4.65;;
21305;SDS011;10812;51.838;5.838;2023-05-10T12:17:44;6.03;;;4.00;;
21305;SDS011;10812;51.838;5.838;2023-05-10T12:20:13;5.35;;;3.70;;
21305;SDS011;10812;51.838;5.838;2023-05-10T12:22:48;6.47;;;4.57;;
21305;SDS011;10812;51.838;5.838;2023-05-10T12:25:18;5.68;;;4.07;;
21305;SDS011;10812;51.838;5.838;2023-05-10T12:27:50;6.53;;;4.55;;
21305;SDS011;10812;51.838;5.838;2023-05-10T12:30:19;8.23;;;4.45;;
21305;SDS011;10812;51.838;5.838;2023-05-10T12:32:48;6.57;;;4.20;;
21305;SDS011;10812;51.838;5.838;2023-05-10T12:35:17;6.38;;;4.00;;
21305;SDS011;10812;51.838;5.838;2023-05-10T12:37:50;5.25;;;3.95;;
21305;SDS011;10812;51.838;5.838;2023-05-10T12:40:18;4.97;;;3.92;;
21305;SDS011;10812;51.838;5.838;2023-05-10T12:42:46;4.15;;;3.67;;
21305;SDS011;10812;51.838;5.838;2023-05-10T12:45:15;4.70;;;4.18;;
21305;SDS011;10812;51.838;5.838;2023-05-10T12:47:45;4.82;;;3.70;;
21305;SDS011;10812;51.838;5.838;2023-05-10T12:50:13;5.97;;;4.45;;
21305;SDS011;10812;51.838;5.838;2023-05-10T12:59:57;7.55;;;4.97;;
21305;SDS011;10812;51.838;5.838;2023-05-10T13:02:25;7.63;;;6.13;;
21305;SDS011;10812;51.838;5.838;2023-05-10T13:04:53;7.95;;;5.97;;
21305;SDS011;10812;51.838;5.838;2023-05-10T13:07:21;7.85;;;5.88;;
21305;SDS011;10812;51.838;5.838;2023-05-10T13:09:50;8.00;;;5.75;;
21305;SDS011;10812;51.838;5.838;2023-05-10T13:12:18;9.10;;;6.60;;
21305;SDS011;10812;51.838;5.838;2023-05-10T13:14:46;7.57;;;6.47;;
21305;SDS011;10812;51.838;5.838;2023-05-10T13:17:15;7.95;;;6.43;;
21305;SDS011;10812;51.838;5.838;2023-05-10T13:19:43;8.88;;;6.85;;
21305;SDS011;10812;51.838;5.838;2023-05-10T13:22:12;9.52;;;7.15;;
21305;SDS011;10812;51.838;5.838;2023-05-10T13:24:45;9.98;;;6.85;;
21305;SDS011;10812;51.838;5.838;2023-05-10T13:27:13;8.98;;;7.18;;
21305;SDS011;10812;51.838;5.838;2023-05-10T13:29:42;11.13;;;7.32;;
21305;SDS011;10812;51.838;5.838;2023-05-10T13:32:11;9.13;;;7.75;;
21305;SDS011;10812;51.838;5.838;2023-05-10T13:34:41;8.48;;;7.53;;
21305;SDS011;10812;51.838;5.838;2023-05-10T13:37:09;10.18;;;7.75;;
21305;SDS011;10812;51.838;5.838;2023-05-10T13:39:37;9.45;;;7.50;;
21305;SDS011;10812;51.838;5.838;2023-05-10T13:42:05;10.00;;;7.93;;
21305;SDS011;10812;51.838;5.838;2023-05-10T13:44:33;9.48;;;7.50;;
21305;SDS011;10812;51.838;5.838;2023-05-10T13:47:02;8.68;;;7.35;;
21305;SDS011;10812;51.838;5.838;2023-05-10T13:49:30;10.23;;;7.88;;
21305;SDS011;10812;51.838;5.838;2023-05-10T13:51:59;10.82;;;7.05;;
21305;SDS011;10812;51.838;5.838;2023-05-10T13:54:32;6.90;;;5.75;;
21305;SDS011;10812;51.838;5.838;2023-05-10T13:57:00;7.97;;;6.45;;
21305;SDS011;10812;51.838;5.838;2023-05-10T13:59:28;8.23;;;6.60;;
21305;SDS011;10812;51.838;5.838;2023-05-10T14:01:57;8.90;;;6.78;;
21305;SDS011;10812;51.838;5.838;2023-05-10T14:04:26;6.28;;;5.65;;
21305;SDS011;10812;51.838;5.838;2023-05-10T14:06:54;7.03;;;5.40;;
21305;SDS011;10812;51.838;5.838;2023-05-10T14:09:23;6.53;;;5.90;;
21305;SDS011;10812;51.838;5.838;2023-05-10T14:11:51;7.35;;;6.47;;
21305;SDS011;10812;51.838;5.838;2023-05-10T14:14:19;8.20;;;6.70;;
21305;SDS011;10812;51.838;5.838;2023-05-10T14:16:47;7.30;;;6.40;;
21305;SDS011;10812;51.838;5.838;2023-05-10T14:19:16;7.88;;;6.97;;
21305;SDS011;10812;51.838;5.838;2023-05-10T14:21:44;9.75;;;8.75;;
21305;SDS011;10812;51.838;5.838;2023-05-10T14:24:12;8.88;;;7.15;;
21305;SDS011;10812;51.838;5.838;2023-05-10T14:26:41;8.57;;;7.18;;
21305;SDS011;10812;51.838;5.838;2023-05-10T14:29:09;8.70;;;7.70;;
21305;SDS011;10812;51.838;5.838;2023-05-10T14:31:38;9.48;;;7.40;;
21305;SDS011;10812;51.838;5.838;2023-05-10T14:34:06;10.45;;;7.15;;
21305;SDS011;10812;51.838;5.838;2023-05-10T14:36:34;7.95;;;6.65;;
21305;SDS011;10812;51.838;5.838;2023-05-10T14:39:02;8.40;;;7.18;;
21305;SDS011;10812;51.838;5.838;2023-05-10T14:41:31;10.00;;;8.10;;
21305;SDS011;10812;51.838;5.838;2023-05-10T14:44:00;8.77;;;6.90;;
21305;SDS011;10812;51.838;5.838;2023-05-10T14:46:29;8.70;;;7.68;;
21305;SDS011;10812;51.838;5.838;2023-05-10T14:48:57;7.25;;;6.50;;
21305;SDS011;10812;51.838;5.838;2023-05-10T14:51:25;8.23;;;6.78;;
21305;SDS011;10812;51.838;5.838;2023-05-10T14:53:53;8.30;;;7.47;;
21305;SDS011;10812;51.838;5.838;2023-05-10T14:56:22;10.63;;;8.27;;
21305;SDS011;10812;51.838;5.838;2023-05-10T14:58:52;8.85;;;7.88;;
21305;SDS011;10812;51.838;5.838;2023-05-10T15:01:21;9.57;;;8.50;;
21305;SDS011;10812;51.838;5.838;2023-05-10T15:03:50;9.32;;;7.65;;
21305;SDS011;10812;51.838;5.838;2023-05-10T15:06:22;7.20;;;5.72;;
21305;SDS011;10812;51.838;5.838;2023-05-10T15:08:51;6.47;;;5.57;;
21305;SDS011;10812;51.838;5.838;2023-05-10T15:11:20;6.32;;;5.40;;
21305;SDS011;10812;51.838;5.838;2023-05-10T15:13:48;6.80;;;5.53;;
21305;SDS011;10812;51.838;5.838;2023-05-10T15:16:16;6.10;;;5.15;;
21305;SDS011;10812;51.838;5.838;2023-05-10T15:18:45;6.80;;;5.82;;
21305;SDS011;10812;51.838;5.838;2023-05-10T15:21:14;5.50;;;4.63;;
21305;SDS011;10812;51.838;5.838;2023-05-10T15:23:42;5.60;;;4.90;;
21305;SDS011;10812;51.838;5.838;2023-05-10T15:41:35;6.75;;;4.78;;
21305;SDS011;10812;51.838;5.838;2023-05-10T15:44:04;6.47;;;5.03;;
21305;SDS011;10812;51.838;5.838;2023-05-10T15:46:32;8.20;;;5.22;;
21305;SDS011;10812;51.838;5.838;2023-05-10T15:49:00;5.60;;;5.07;;
21305;SDS011;10812;51.838;5.838;2023-05-10T15:51:28;6.28;;;4.70;;
21305;SDS011;10812;51.838;5.838;2023-05-10T15:53:57;6.55;;;5.00;;
21305;SDS011;10812;51.838;5.838;2023-05-10T15:56:33;5.18;;;4.38;;
21305;SDS011;10812;51.838;5.838;2023-05-10T15:59:03;8.02;;;4.93;;
21305;SDS011;10812;51.838;5.838;2023-05-10T16:01:33;6.45;;;4.72;;
21305;SDS011;10812;51.838;5.838;2023-05-10T16:04:02;5.55;;;4.38;;
21305;SDS011;10812;51.838;5.838;2023-05-10T16:06:30;5.85;;;4.72;;
21305;SDS011;10812;51.838;5.838;2023-05-10T16:08:58;7.30;;;4.80;;
21305;SDS011;10812;51.838;5.838;2023-05-10T16:11:26;6.30;;;4.70;;